MSC Luisa — H9XU — position and weather

sailwx.info

Track history (hours):
 
Tides and Currents Weather Stations Pressure Air Temp Water Temp Dewpoint Dewpoint Depression Visibility Wind Speed Wind Dir Waves Ship Positions

MSC Luisa

Last reported at 2017-Feb-14 00:24 UTC. Time now 2017-Feb-21 05:33 UTC.
Position S 24°21' W 045°34'.

Length 300 m; draft 10.9 m.

Type: Ship. MMSI: 355308000.

Date/timePositionNaut miles runAvg speedWind from/ knotsBaromVisibWave heightAir tempDewpointWater temp
2017-Feb-14 00:24S 24°21' W 045°34'1316.1
2017-Feb-13 23:34S 24°23' W 045°48'1616.2
2017-Feb-13 22:33S 24°25' W 046°06'1515.0
2017-Feb-13 21:33S 24°15' W 046°19'1514.7
2017-Feb-13 20:33S 24°01' W 046°20'5 5.0
2017-Feb-13 19:28S 23°55' W 046°20'1 0.1
2017-Feb-13 14:16S 23°55' W 046°21'0 0.0
2017-Feb-13 10:32S 23°55' W 046°21'0 0.0
2017-Feb-13 07:13S 23°55' W 046°21'0 0.7
2017-Feb-13 06:32S 23°55' W 046°21'5 4.8
2017-Feb-13 05:33S 23°60' W 046°19'8 8.4
2017-Feb-13 04:33S 24°07' W 046°23'1313.4
2017-Feb-13 03:33S 24°19' W 046°29'3 3.0
2017-Feb-13 02:33S 24°22' W 046°29'2 1.8
2017-Feb-13 01:33S 24°21' W 046°28'2 1.9
2017-Feb-13 00:33S 24°21' W 046°26'2 2.0
2017-Feb-12 23:33S 24°20' W 046°24'3 3.1
2017-Feb-12 22:33S 24°20' W 046°27'4 4.1
2017-Feb-12 21:33S 24°22' W 046°31'2 1.9
2017-Feb-12 20:33S 24°21' W 046°29'2 1.8
2017-Feb-12 19:33S 24°21' W 046°27'2 1.9
2017-Feb-12 18:33S 24°21' W 046°25'2 1.9
2017-Feb-12 17:33S 24°22' W 046°23'1 1.3
2017-Feb-12 16:33S 24°22' W 046°22'1 0.8
2017-Feb-12 15:33S 24°23' W 046°21'1 0.6
2017-Feb-12 14:33S 24°23' W 046°20'0 0.4
2017-Feb-12 13:33S 24°23' W 046°20'0 0.2
2017-Feb-12 12:33S 24°23' W 046°20'0 0.3
2017-Feb-12 11:33S 24°23' W 046°20'0 0.4
2017-Feb-12 10:33S 24°22' W 046°20'7 6.6
2017-Feb-12 09:33S 24°24' W 046°27'5 5.1
2017-Feb-12 08:33S 24°24' W 046°32'1 1.3
2017-Feb-12 07:31S 24°23' W 046°31'2 1.8
2017-Feb-12 06:22S 24°23' W 046°29'2 2.0
2017-Feb-12 05:28S 24°22' W 046°27'2 2.1
2017-Feb-12 04:28S 24°22' W 046°25'2 2.1
2017-Feb-12 03:31S 24°22' W 046°22'2 2.3
2017-Feb-12 02:28S 24°22' W 046°20'1 1.6
2017-Feb-12 01:33S 24°22' W 046°18'6 6.1
2017-Feb-12 00:33S 24°22' W 046°25'1 1.0
2017-Feb-11 23:28S 24°22' W 046°26'2 2.0
2017-Feb-11 22:28S 24°22' W 046°24'2 1.9
2017-Feb-11 21:28S 24°22' W 046°22'1 1.0
2017-Feb-11 20:31S 24°22' W 046°20'1 0.7
2017-Feb-11 19:28S 24°22' W 046°20'1 0.8
2017-Feb-11 18:28S 24°22' W 046°19'1 0.7
2017-Feb-11 17:22S 24°22' W 046°18'3 3.2
2017-Feb-11 16:33S 24°23' W 046°20'7 6.7
2017-Feb-11 15:33S 24°27' W 046°26'3 2.3
2017-Feb-11 14:11S 24°29' W 046°29'0 0.7
2017-Feb-11 13:32S 24°28' W 046°29'1 0.9
2017-Feb-11 12:26S 24°28' W 046°28'1 1.2
2017-Feb-11 11:29S 24°27' W 046°27'1 1.3
2017-Feb-11 10:29S 24°26' W 046°26'2 1.9
2017-Feb-11 09:23S 24°25' W 046°25'2 1.8
2017-Feb-11 08:29S 24°24' W 046°23'2 1.9
2017-Feb-11 07:26S 24°23' W 046°21'2 2.2
2017-Feb-11 06:32S 24°22' W 046°19'7 7.6
2017-Feb-11 05:33S 24°15' W 046°20'1414.3
2017-Feb-11 04:33S 24°01' W 046°20'4 1.1
2017-Feb-11 01:17S 23°58' W 046°18'0 0.0
2017-Feb-11 00:14S 23°58' W 046°18'0 0.0
2017-Feb-10 23:26S 23°58' W 046°18'0 0.0
2017-Feb-10 22:33S 23°58' W 046°18'0 0.0
2017-Feb-10 21:32S 23°58' W 046°18'0 0.0
2017-Feb-10 20:33S 23°58' W 046°18'0 0.0
2017-Feb-10 19:32S 23°58' W 046°18'0 0.0
2017-Feb-10 18:30S 23°58' W 046°18'0 0.0
2017-Feb-10 17:30S 23°58' W 046°18'1 0.8
2017-Feb-10 16:33S 23°58' W 046°17'7 7.4
2017-Feb-10 15:33S 24°04' W 046°22'8 7.9
2017-Feb-10 14:33S 24°12' W 046°25'1010.0
2017-Feb-10 13:34S 24°21' W 046°20'7 7.0
2017-Feb-10 12:33S 24°26' W 046°25'3 3.1
2017-Feb-10 11:33S 24°29' W 046°25'1 0.6
2017-Feb-10 10:33S 24°29' W 046°25'1 0.9
2017-Feb-10 09:33S 24°28' W 046°24'1 1.1
2017-Feb-10 08:33S 24°27' W 046°24'1 1.2
2017-Feb-10 07:33S 24°26' W 046°23'1 1.4
2017-Feb-10 06:33S 24°25' W 046°22'2 1.8
2017-Feb-10 05:33S 24°24' W 046°20'2 1.9
2017-Feb-10 04:33S 24°23' W 046°19'1 1.1
2017-Feb-10 03:33S 24°23' W 046°17'9 8.6
2017-Feb-10 02:34S 24°23' W 046°27'2 2.1
2017-Feb-10 01:33S 24°23' W 046°25'2 2.0
2017-Feb-10 00:33S 24°23' W 046°22'3 2.8
2017-Feb-09 23:33S 24°25' W 046°25'6 6.5
2017-Feb-09 22:33S 24°29' W 046°31'1212.2
2017-Feb-09 21:33S 24°39' W 046°37'163 3.8
2017-Feb-08 02:33S 26°53' W 048°21'24 4.4
2017-Feb-07 21:10S 27°15' W 048°11'711.6
2017-Feb-07 20:32S 27°22' W 048°11'1111.5
2017-Feb-07 19:33S 27°34' W 048°11'1211.6
2017-Feb-07 18:33S 27°45' W 048°11'1311.8
2017-Feb-07 17:29S 27°58' W 048°11'  
Track history (hours):
 
Tides and Currents Weather Stations Pressure Air Temp Water Temp Dewpoint Dewpoint Depression Visibility Wind Speed Wind Dir Waves Ship Positions

MSC Luisa

Last reported at 2017-Feb-14 00:24 UTC. Time now 2017-Feb-21 05:33 UTC.
Position S 24°21' W 045°34'.

Length 300 m; draft 10.9 m.

Type: Ship. MMSI: 355308000.

Date/timePositionNaut miles runAvg speedWind from/ knotsBaromVisibWave heightAir tempDewpointWater temp
2017-Feb-14 00:24S 24°21' W 045°34'1316.1
2017-Feb-13 23:34S 24°23' W 045°48'1616.2
2017-Feb-13 22:33S 24°25' W 046°06'1515.0
2017-Feb-13 21:33S 24°15' W 046°19'1514.7
2017-Feb-13 20:33S 24°01' W 046°20'5 5.0
2017-Feb-13 19:28S 23°55' W 046°20'1 0.1
2017-Feb-13 14:16S 23°55' W 046°21'0 0.0
2017-Feb-13 10:32S 23°55' W 046°21'0 0.0
2017-Feb-13 07:13S 23°55' W 046°21'0 0.7
2017-Feb-13 06:32S 23°55' W 046°21'5 4.8
2017-Feb-13 05:33S 23°60' W 046°19'8 8.4
2017-Feb-13 04:33S 24°07' W 046°23'1313.4
2017-Feb-13 03:33S 24°19' W 046°29'3 3.0
2017-Feb-13 02:33S 24°22' W 046°29'2 1.8
2017-Feb-13 01:33S 24°21' W 046°28'2 1.9
2017-Feb-13 00:33S 24°21' W 046°26'2 2.0
2017-Feb-12 23:33S 24°20' W 046°24'3 3.1
2017-Feb-12 22:33S 24°20' W 046°27'4 4.1
2017-Feb-12 21:33S 24°22' W 046°31'2 1.9
2017-Feb-12 20:33S 24°21' W 046°29'2 1.8
2017-Feb-12 19:33S 24°21' W 046°27'2 1.9
2017-Feb-12 18:33S 24°21' W 046°25'2 1.9
2017-Feb-12 17:33S 24°22' W 046°23'1 1.3
2017-Feb-12 16:33S 24°22' W 046°22'1 0.8
2017-Feb-12 15:33S 24°23' W 046°21'1 0.6
2017-Feb-12 14:33S 24°23' W 046°20'0 0.4
2017-Feb-12 13:33S 24°23' W 046°20'0 0.2
2017-Feb-12 12:33S 24°23' W 046°20'0 0.3
2017-Feb-12 11:33S 24°23' W 046°20'0 0.4
2017-Feb-12 10:33S 24°22' W 046°20'7 6.6
2017-Feb-12 09:33S 24°24' W 046°27'5 5.1
2017-Feb-12 08:33S 24°24' W 046°32'1 1.3
2017-Feb-12 07:31S 24°23' W 046°31'2 1.8
2017-Feb-12 06:22S 24°23' W 046°29'2 2.0
2017-Feb-12 05:28S 24°22' W 046°27'2 2.1
2017-Feb-12 04:28S 24°22' W 046°25'2 2.1
2017-Feb-12 03:31S 24°22' W 046°22'2 2.3
2017-Feb-12 02:28S 24°22' W 046°20'1 1.6
2017-Feb-12 01:33S 24°22' W 046°18'6 6.1
2017-Feb-12 00:33S 24°22' W 046°25'1 1.0
2017-Feb-11 23:28S 24°22' W 046°26'2 2.0
2017-Feb-11 22:28S 24°22' W 046°24'2 1.9
2017-Feb-11 21:28S 24°22' W 046°22'1 1.0
2017-Feb-11 20:31S 24°22' W 046°20'1 0.7
2017-Feb-11 19:28S 24°22' W 046°20'1 0.8
2017-Feb-11 18:28S 24°22' W 046°19'1 0.7
2017-Feb-11 17:22S 24°22' W 046°18'3 3.2
2017-Feb-11 16:33S 24°23' W 046°20'7 6.7
2017-Feb-11 15:33S 24°27' W 046°26'3 2.3
2017-Feb-11 14:11S 24°29' W 046°29'0 0.7
2017-Feb-11 13:32S 24°28' W 046°29'1 0.9
2017-Feb-11 12:26S 24°28' W 046°28'1 1.2
2017-Feb-11 11:29S 24°27' W 046°27'1 1.3
2017-Feb-11 10:29S 24°26' W 046°26'2 1.9
2017-Feb-11 09:23S 24°25' W 046°25'2 1.8
2017-Feb-11 08:29S 24°24' W 046°23'2 1.9
2017-Feb-11 07:26S 24°23' W 046°21'2 2.2
2017-Feb-11 06:32S 24°22' W 046°19'7 7.6
2017-Feb-11 05:33S 24°15' W 046°20'1414.3
2017-Feb-11 04:33S 24°01' W 046°20'4 1.1
2017-Feb-11 01:17S 23°58' W 046°18'0 0.0
2017-Feb-11 00:14S 23°58' W 046°18'0 0.0
2017-Feb-10 23:26S 23°58' W 046°18'0 0.0
2017-Feb-10 22:33S 23°58' W 046°18'0 0.0
2017-Feb-10 21:32S 23°58' W 046°18'0 0.0
2017-Feb-10 20:33S 23°58' W 046°18'0 0.0
2017-Feb-10 19:32S 23°58' W 046°18'0 0.0
2017-Feb-10 18:30S 23°58' W 046°18'0 0.0
2017-Feb-10 17:30S 23°58' W 046°18'1 0.8
2017-Feb-10 16:33S 23°58' W 046°17'7 7.4
2017-Feb-10 15:33S 24°04' W 046°22'8 7.9
2017-Feb-10 14:33S 24°12' W 046°25'1010.0
2017-Feb-10 13:34S 24°21' W 046°20'7 7.0
2017-Feb-10 12:33S 24°26' W 046°25'3 3.1
2017-Feb-10 11:33S 24°29' W 046°25'1 0.6
2017-Feb-10 10:33S 24°29' W 046°25'1 0.9
2017-Feb-10 09:33S 24°28' W 046°24'1 1.1
2017-Feb-10 08:33S 24°27' W 046°24'1 1.2
2017-Feb-10 07:33S 24°26' W 046°23'1 1.4
2017-Feb-10 06:33S 24°25' W 046°22'2 1.8
2017-Feb-10 05:33S 24°24' W 046°20'2 1.9
2017-Feb-10 04:33S 24°23' W 046°19'1 1.1
2017-Feb-10 03:33S 24°23' W 046°17'9 8.6
2017-Feb-10 02:34S 24°23' W 046°27'2 2.1
2017-Feb-10 01:33S 24°23' W 046°25'2 2.0
2017-Feb-10 00:33S 24°23' W 046°22'3 2.8
2017-Feb-09 23:33S 24°25' W 046°25'6 6.5
2017-Feb-09 22:33S 24°29' W 046°31'1212.2
2017-Feb-09 21:33S 24°39' W 046°37'163 3.8
2017-Feb-08 02:33S 26°53' W 048°21'24 4.4
2017-Feb-07 21:10S 27°15' W 048°11'711.6
2017-Feb-07 20:32S 27°22' W 048°11'1111.5
2017-Feb-07 19:33S 27°34' W 048°11'1211.6
2017-Feb-07 18:33S 27°45' W 048°11'1311.8
2017-Feb-07 17:29S 27°58' W 048°11'  

Dump ship's entire track history